Time;durP1;ratioP1;P1;durP2;ratioP2;P2;SDS_P1;SDS_P2;PMS_P1;PMS_P2;Temp;Humidity;BMP_temperature;BMP_pressure;BME280_temperature;BME280_humidity;BME280_pressure;Samples;Min_cycle;Max_cycle;Signal;HPM_P1;HPM_P2
2022/02/28 00:00:35;;;;;;;31.40;19.00;;;2.70;1.00;;;;;;5108104;28;20459;-62
2022/02/28 00:03:02;;;;;;;33.80;19.13;;;;;;;;;;5095786;28;20447;-62
2022/02/28 00:05:28;;;;;;;34.10;19.30;;;2.60;1.00;;;;;;5104106;28;20440;-61
2022/02/28 00:07:54;;;;;;;35.97;18.80;;;2.50;1.00;;;;;;5100581;28;20432;-61
2022/02/28 00:10:20;;;;;;;33.73;18.67;;;;;;;;;;5104766;28;20214;-62
2022/02/28 00:12:46;;;;;;;31.23;18.20;;;;;;;;;;5099759;28;20193;-59
2022/02/28 00:15:14;;;;;;;34.57;20.40;;;2.40;1.00;;;;;;5083720;28;20734;-60
2022/02/28 00:17:40;;;;;;;33.50;18.70;;;;;;;;;;5102759;28;20448;-60
2022/02/28 00:20:09;;;;;;;32.87;17.53;;;2.40;1.00;;;;;;5108025;28;20524;-62
2022/02/28 00:22:34;;;;;;;34.40;18.50;;;2.40;1.00;;;;;;5102574;28;20770;-61
2022/02/28 00:25:01;;;;;;;35.60;18.57;;;2.40;1.00;;;;;;5101687;28;20450;-61
2022/02/28 00:27:27;;;;;;;38.10;18.97;;;2.40;1.00;;;;;;5097086;28;20637;-60
2022/02/28 00:29:53;;;;;;;31.60;19.13;;;2.40;1.00;;;;;;5103609;28;20520;-61
2022/02/28 00:32:22;;;;;;;35.43;19.77;;;2.40;1.00;;;;;;5099435;28;20262;-62
2022/02/28 00:34:49;;;;;;;31.30;18.27;;;;;;;;;;5104441;28;20460;-61
2022/02/28 00:37:14;;;;;;;35.00;17.57;;;2.50;1.00;;;;;;5104682;28;20447;-61
2022/02/28 00:39:40;;;;;;;31.17;18.60;;;;;;;;;;5102023;28;20775;-62
2022/02/28 00:42:06;;;;;;;38.03;19.10;;;2.60;1.00;;;;;;5101190;28;20182;-61
2022/02/28 00:44:32;;;;;;;30.07;17.97;;;;;;;;;;5099514;28;20443;-61
2022/02/28 00:46:58;;;;;;;28.40;19.13;;;;;;;;;;5106751;28;20198;-62
2022/02/28 00:49:23;;;;;;;32.50;17.67;;;2.40;1.00;;;;;;5098525;28;20444;-61
2022/02/28 00:51:50;;;;;;;40.10;18.10;;;2.30;1.00;;;;;;5101523;28;20968;-60
2022/02/28 00:54:15;;;;;;;44.20;20.30;;;2.30;1.00;;;;;;5102430;28;20226;-61
2022/02/28 00:56:41;;;;;;;32.90;18.10;;;2.30;1.00;;;;;;5105466;28;20467;-62
2022/02/28 00:59:07;;;;;;;35.00;17.43;;;;;;;;;;5104123;28;20635;-60
2022/02/28 01:01:35;;;;;;;32.03;19.67;;;2.30;1.00;;;;;;5099145;28;20217;-62
2022/02/28 01:04:01;;;;;;;31.77;19.03;;;;;;;;;;5099255;28;20441;-60
2022/02/28 01:06:28;;;;;;;36.27;17.30;;;;;;;;;;5109062;28;20450;-61
2022/02/28 01:08:53;;;;;;;32.77;17.27;;;2.50;1.00;;;;;;5104000;28;20432;-62
2022/02/28 01:11:19;;;;;;;28.67;17.93;;;;;;;;;;5105831;28;20501;-61
2022/02/28 01:13:45;;;;;;;30.83;16.60;;;;;;;;;;5101410;28;20547;-61
2022/02/28 01:16:11;;;;;;;34.20;17.77;;;;;;;;;;5105994;28;20508;-61
2022/02/28 01:18:37;;;;;;;34.00;18.10;;;2.70;1.00;;;;;;5113467;28;20491;-62
2022/02/28 01:21:09;;;;;;;33.37;16.83;;;;;;;;;;5110997;28;20463;-62
2022/02/28 01:23:35;;;;;;;33.50;19.07;;;2.60;1.00;;;;;;5085815;28;20277;-61
2022/02/28 01:26:00;;;;;;;29.60;17.90;;;;;;;;;;5109908;28;20463;-62
2022/02/28 01:28:26;;;;;;;33.83;19.50;;;;;;;;;;5099149;28;20246;-61
2022/02/28 01:30:52;;;;;;;34.00;18.10;;;2.50;1.00;;;;;;5111104;28;20448;-62
2022/02/28 01:33:18;;;;;;;27.60;18.03;;;;;;;;;;5105769;28;20441;-60
2022/02/28 01:35:44;;;;;;;30.50;17.60;;;2.40;1.00;;;;;;5104964;28;20282;-62
2022/02/28 01:38:10;;;;;;;36.80;16.97;;;2.40;1.00;;;;;;5107798;28;20440;-61
2022/02/28 01:40:36;;;;;;;31.07;17.10;;;2.40;1.00;;;;;;5110378;28;20229;-62
2022/02/28 01:43:03;;;;;;;32.97;18.17;;;2.30;1.00;;;;;;5106896;28;20656;-61
2022/02/28 01:45:29;;;;;;;30.40;17.43;;;;;;;;;;5101764;28;20501;-61
2022/02/28 01:47:57;;;;;;;30.83;16.80;;;2.40;1.00;;;;;;5105277;28;20428;-61
2022/02/28 01:50:24;;;;;;;33.63;18.20;;;2.50;1.00;;;;;;5107653;28;20822;-62
2022/02/28 01:52:50;;;;;;;27.90;16.27;;;2.50;1.00;;;;;;5105633;28;20891;-60
2022/02/28 01:55:18;;;;;;;29.47;16.83;;;2.60;1.00;;;;;;5111410;28;20503;-61
2022/02/28 01:57:44;;;;;;;34.30;17.70;;;2.60;1.00;;;;;;5104086;28;20956;-61
2022/02/28 02:00:16;;;;;;;33.50;17.17;;;2.70;1.00;;;;;;5102746;28;20462;-61
2022/02/28 02:02:42;;;;;;;27.13;15.90;;;2.70;1.00;;;;;;5109915;28;20967;-62
2022/02/28 02:05:08;;;;;;;30.20;16.77;;;2.90;1.00;;;;;;5105135;28;20437;-62
2022/02/28 02:07:34;;;;;;;30.17;16.70;;;2.90;1.00;;;;;;5081409;28;20603;-62
2022/02/28 02:10:03;;;;;;;28.30;16.63;;;2.90;1.00;;;;;;5084099;28;20960;-61
2022/02/28 02:12:29;;;;;;;26.87;16.50;;;2.90;1.00;;;;;;5106259;28;20505;-61
2022/02/28 02:14:56;;;;;;;30.60;17.20;;;3.00;1.00;;;;;;5103536;28;20538;-60
2022/02/28 02:17:22;;;;;;;31.17;16.13;;;;;;;;;;5106046;28;20403;-62
2022/02/28 02:19:48;;;;;;;25.67;14.70;;;;;;;;;;5085624;28;20555;-61
2022/02/28 02:22:21;;;;;;;25.33;14.90;;;;;;;;;;5086790;28;20956;-62
2022/02/28 02:24:48;;;;;;;31.70;16.00;;;;;;;;;;5103427;28;20917;-63
2022/02/28 02:27:13;;;;;;;28.77;15.20;;;3.10;1.00;;;;;;5107736;28;20558;-62
2022/02/28 02:29:39;;;;;;;33.20;15.90;;;3.10;1.00;;;;;;5088505;28;20530;-61
2022/02/28 02:32:18;;;;;;;34.30;15.83;;;3.00;1.00;;;;;;5103611;28;20183;-61
2022/02/28 02:34:45;;;;;;;26.03;15.10;;;;;;;;;;5102107;28;20444;-62
2022/02/28 02:37:11;;;;;;;29.50;15.37;;;2.90;1.00;;;;;;5109490;28;20458;-62
2022/02/28 02:39:40;;;;;;;28.07;14.77;;;2.80;1.00;;;;;;5106693;28;20774;-61
2022/02/28 02:42:06;;;;;;;23.83;13.50;;;2.70;1.00;;;;;;5107379;28;20922;-61
2022/02/28 02:44:33;;;;;;;25.50;14.50;;;2.60;1.00;;;;;;5103288;28;20448;-62
2022/02/28 02:46:59;;;;;;;31.23;15.17;;;;;;;;;;5102541;28;20942;-61
2022/02/28 02:49:25;;;;;;;29.60;14.57;;;2.60;1.00;;;;;;5110470;28;20447;-62
2022/02/28 02:51:51;;;;;;;23.83;13.23;;;;;;;;;;5106356;28;20864;-62
2022/02/28 02:54:18;;;;;;;27.03;15.57;;;2.50;1.00;;;;;;5101149;28;20228;-63
2022/02/28 02:56:43;;;;;;;27.90;14.60;;;2.50;1.00;;;;;;5104761;28;20440;-61
2022/02/28 02:59:09;;;;;;;25.10;14.60;;;2.50;1.00;;;;;;5099307;28;20452;-63
2022/02/28 03:01:35;;;;;;;22.73;13.93;;;2.50;1.00;;;;;;5103301;28;20205;-61
2022/02/28 03:04:01;;;;;;;28.63;16.30;;;2.50;1.00;;;;;;5100832;28;20832;-61
2022/02/28 03:06:27;;;;;;;28.87;16.60;;;;;;;;;;5097895;28;20224;-60
2022/02/28 03:08:53;;;;;;;29.50;16.93;;;2.50;1.00;;;;;;5079748;28;20448;-61
2022/02/28 03:11:19;;;;;;;28.33;14.77;;;;;;;;;;5085584;28;20448;-61
2022/02/28 03:13:45;;;;;;;23.33;13.80;;;2.30;1.00;;;;;;5105617;28;20794;-62
2022/02/28 03:16:11;;;;;;;26.57;14.70;;;2.40;1.00;;;;;;5100968;28;20443;-62
2022/02/28 03:18:37;;;;;;;30.03;16.60;;;2.50;1.00;;;;;;5101933;28;20275;-63
2022/02/28 03:21:02;;;;;;;31.03;14.30;;;;;;;;;;5108110;28;20486;-62
2022/02/28 03:23:28;;;;;;;23.00;12.43;;;2.60;1.00;;;;;;5106319;28;20187;-60
2022/02/28 03:25:54;;;;;;;31.20;14.87;;;;;;;;;;5105544;28;20917;-61
2022/02/28 03:28:20;;;;;;;23.80;15.20;;;2.50;1.00;;;;;;5105119;28;20177;-64
2022/02/28 03:30:47;;;;;;;28.43;14.63;;;2.50;1.00;;;;;;5100116;28;20460;-60
2022/02/28 03:33:13;;;;;;;24.10;14.17;;;;;;;;;;5101760;28;20251;-61
2022/02/28 03:35:39;;;;;;;23.23;14.30;;;;;;;;;;5109823;28;20469;-62
2022/02/28 03:38:05;;;;;;;27.07;15.23;;;2.50;1.00;;;;;;5108209;28;20960;-61
2022/02/28 03:40:31;;;;;;;28.93;15.30;;;2.50;1.00;;;;;;5083379;28;20464;-60
2022/02/28 03:42:59;;;;;;;24.27;14.07;;;;;;;;;;5099370;28;20193;-59
2022/02/28 03:45:24;;;;;;;27.67;14.37;;;2.40;1.00;;;;;;5101987;28;20444;-61
2022/02/28 03:47:50;;;;;;;29.23;15.17;;;;;;;;;;5105127;28;20500;-61
2022/02/28 03:50:16;;;;;;;24.10;13.70;;;2.40;1.00;;;;;;5087887;28;20205;-62
2022/02/28 03:52:43;;;;;;;25.50;15.03;;;;;;;;;;5102065;28;20435;-62
2022/02/28 03:55:09;;;;;;;30.57;15.50;;;2.40;1.00;;;;;;5101586;28;20476;-61
2022/02/28 03:57:34;;;;;;;26.33;14.30;;;2.40;1.00;;;;;;5104932;28;20448;-62
2022/02/28 04:00:00;;;;;;;27.90;14.70;;;2.30;1.00;;;;;;5107536;28;20470;-60
2022/02/28 04:02:26;;;;;;;29.90;16.70;;;;;;;;;;5107707;28;20179;-62
2022/02/28 04:04:52;;;;;;;26.90;15.73;;;2.30;1.00;;;;;;5104012;28;20247;-61
2022/02/28 04:07:17;;;;;;;28.53;16.57;;;2.30;1.00;;;;;;5105102;28;20424;-60
2022/02/28 04:09:43;;;;;;;30.17;15.83;;;2.20;1.00;;;;;;5082899;28;20525;-61
2022/02/28 04:12:10;;;;;;;32.27;15.70;;;2.20;1.00;;;;;;5104139;28;20193;-62
2022/02/28 04:14:36;;;;;;;30.93;17.03;;;2.20;1.00;;;;;;5098052;28;20235;-62
2022/02/28 04:17:03;;;;;;;35.13;17.30;;;2.20;1.00;;;;;;5102140;28;20487;-63
2022/02/28 04:19:28;;;;;;;33.40;14.83;;;2.10;1.00;;;;;;5088887;28;20527;-60
2022/02/28 04:21:54;;;;;;;27.90;14.00;;;;;;;;;;5102888;28;20616;-61
2022/02/28 04:24:20;;;;;;;29.17;15.43;;;2.00;1.00;;;;;;5105319;28;20189;-60
2022/02/28 04:26:46;;;;;;;26.40;15.17;;;;;;;;;;5105257;28;20452;-60
2022/02/28 04:29:13;;;;;;;29.57;16.33;;;;;;;;;;5081301;28;20272;-60
2022/02/28 04:31:39;;;;;;;27.30;14.63;;;;;;;;;;5099049;28;20456;-60
2022/02/28 04:34:05;;;;;;;28.70;15.03;;;;;;;;;;5101090;28;20451;-61
2022/02/28 04:36:31;;;;;;;34.83;17.47;;;;;;;;;;5097668;28;20439;-60
2022/02/28 04:39:00;;;;;;;35.30;16.77;;;1.80;1.00;;;;;;5102487;28;20436;-61
2022/02/28 04:41:26;;;;;;;25.00;14.87;;;;;;;;;;5086983;28;20520;-62
2022/02/28 04:43:52;;;;;;;26.97;14.77;;;1.80;1.00;;;;;;5107865;28;20523;-62
2022/02/28 04:46:18;;;;;;;28.53;15.10;;;;;;;;;;5108612;28;20957;-61
2022/02/28 04:48:43;;;;;;;25.37;15.10;;;1.80;1.00;;;;;;5100380;28;20942;-62
2022/02/28 04:51:09;;;;;;;22.97;15.30;;;1.70;1.00;;;;;;5106858;28;20459;-61
2022/02/28 04:53:34;;;;;;;30.07;16.67;;;1.70;1.00;;;;;;5110822;28;20216;-61
2022/02/28 04:56:00;;;;;;;32.20;15.90;;;1.70;1.00;;;;;;5098180;28;20226;-62
2022/02/28 04:58:26;;;;;;;29.03;15.27;;;;;;;;;;5105072;28;20174;-61
2022/02/28 05:00:52;;;;;;;27.23;14.80;;;1.70;1.00;;;;;;5105888;28;20209;-61
2022/02/28 05:03:18;;;;;;;32.43;16.03;;;1.70;1.00;;;;;;5090012;28;20432;-61
2022/02/28 05:05:43;;;;;;;28.30;15.10;;;1.60;1.00;;;;;;5107559;28;20443;-59
2022/02/28 05:08:09;;;;;;;25.57;14.30;;;1.60;1.00;;;;;;5109010;28;20182;-58
2022/02/28 05:10:35;;;;;;;25.87;13.07;;;1.40;1.00;;;;;;5107923;28;20190;-56
2022/02/28 05:13:01;;;;;;;25.67;14.10;;;;;;;;;;5096859;28;20193;-57
2022/02/28 05:15:27;;;;;;;30.10;16.57;;;1.30;1.00;;;;;;5091971;28;20436;-57
2022/02/28 05:17:52;;;;;;;25.70;14.47;;;1.40;1.00;;;;;;5098082;28;20764;-58
2022/02/28 05:20:18;;;;;;;26.33;14.60;;;;;;;;;;5098276;28;20288;-56
2022/02/28 05:22:44;;;;;;;34.63;15.23;;;1.50;1.00;;;;;;5108746;28;20174;-58
2022/02/28 05:25:10;;;;;;;24.83;14.17;;;1.50;1.00;;;;;;5101008;28;20502;-58
2022/02/28 05:27:38;;;;;;;28.83;14.53;;;1.60;1.00;;;;;;5106359;28;20528;-59
2022/02/28 05:30:05;;;;;;;29.87;15.27;;;1.60;1.00;;;;;;5080579;28;20482;-59
2022/02/28 05:32:31;;;;;;;25.93;14.63;;;1.60;1.00;;;;;;5112032;28;20432;-58
2022/02/28 05:34:56;;;;;;;26.43;14.03;;;1.60;1.00;;;;;;5100170;28;20443;-58
2022/02/28 05:37:22;;;;;;;27.20;13.70;;;1.60;1.00;;;;;;5109936;28;20650;-59
2022/02/28 05:39:48;;;;;;;35.60;17.03;;;;;;;;;;5104065;28;20214;-58
2022/02/28 05:42:13;;;;;;;28.93;15.00;;;1.60;1.00;;;;;;5100832;28;20210;-60
2022/02/28 05:44:39;;;;;;;32.07;17.33;;;-1.70;1.00;;;;;;5107893;28;20439;-58
2022/02/28 05:47:04;;;;;;;30.10;17.53;;;1.50;1.00;;;;;;5107807;28;20183;-58
2022/02/28 05:49:30;;;;;;;31.53;15.23;;;;;;;;;;5100840;28;20252;-58
2022/02/28 05:51:57;;;;;;;28.60;16.13;;;;;;;;;;5103709;28;20652;-59
2022/02/28 05:54:22;;;;;;;32.17;17.73;;;1.50;1.00;;;;;;5083777;28;20562;-59
2022/02/28 05:56:48;;;;;;;34.87;15.63;;;;;;;;;;5108423;28;20526;-60
2022/02/28 05:59:14;;;;;;;30.70;14.90;;;;;;;;;;5105266;28;20233;-60
2022/02/28 06:01:40;;;;;;;35.63;14.57;;;1.40;1.00;;;;;;5104421;28;20793;-60
2022/02/28 06:04:05;;;;;;;28.70;16.90;;;1.40;1.00;;;;;;5099400;28;20444;-58
2022/02/28 06:06:31;;;;;;;36.53;15.73;;;1.40;1.00;;;;;;5106136;28;20216;-59
2022/02/28 06:08:57;;;;;;;28.60;14.83;;;1.50;1.00;;;;;;5095829;28;20248;-57
2022/02/28 06:11:23;;;;;;;24.77;15.53;;;1.60;1.00;;;;;;5106110;28;20226;-59
2022/02/28 06:13:48;;;;;;;26.43;14.80;;;1.50;1.00;;;;;;5101704;28;20197;-57
2022/02/28 06:16:14;;;;;;;28.80;14.57;;;;;;;;;;5099124;28;20929;-58
2022/02/28 06:18:40;;;;;;;31.20;16.10;;;1.50;1.00;;;;;;5077634;28;20250;-57
2022/02/28 06:21:11;;;;;;;29.10;14.70;;;1.40;1.00;;;;;;5106170;28;20468;-57
2022/02/28 06:23:37;;;;;;;24.67;13.90;;;1.50;1.00;;;;;;5105555;28;20182;-59
2022/02/28 06:26:03;;;;;;;30.37;14.03;;;1.50;1.00;;;;;;5093255;28;20443;-60
2022/02/28 06:28:32;;;;;;;28.43;13.70;;;;;;;;;;5103744;28;20258;-59
2022/02/28 06:30:58;;;;;;;31.80;17.07;;;1.50;1.00;;;;;;5101665;28;20536;-58
2022/02/28 06:33:24;;;;;;;25.63;13.60;;;1.50;1.00;;;;;;5082064;28;20797;-59
2022/02/28 06:35:50;;;;;;;28.23;15.17;;;1.70;1.00;;;;;;5100781;28;20445;-60
2022/02/28 06:38:16;;;;;;;32.37;16.00;;;1.80;1.00;;;;;;5104344;28;20270;-60
2022/02/28 06:40:42;;;;;;;29.90;15.93;;;2.00;1.00;;;;;;5107558;28;20205;-59
2022/02/28 06:43:07;;;;;;;31.27;16.90;;;2.10;1.00;;;;;;5107405;28;20440;-60
2022/02/28 06:45:33;;;;;;;25.50;14.17;;;2.20;1.00;;;;;;5099794;28;20258;-59
2022/02/28 06:47:58;;;;;;;25.70;14.03;;;2.40;1.00;;;;;;5102919;28;20179;-59
2022/02/28 06:50:24;;;;;;;23.23;14.30;;;2.40;1.00;;;;;;5096417;28;20270;-60
2022/02/28 06:52:50;;;;;;;29.60;15.17;;;;;;;;;;5095867;28;20187;-59
2022/02/28 06:55:16;;;;;;;24.47;15.70;;;2.80;1.00;;;;;;5099716;28;20230;-59
2022/02/28 06:57:41;;;;;;;25.70;15.40;;;2.90;1.00;;;;;;5099132;28;20948;-59
2022/02/28 07:00:07;;;;;;;27.60;13.90;;;3.00;1.00;;;;;;5096360;28;20670;-58
2022/02/28 07:02:33;;;;;;;26.80;13.03;;;3.10;1.00;;;;;;5104383;28;20174;-58
2022/02/28 07:04:58;;;;;;;24.97;14.57;;;3.20;1.00;;;;;;5104473;28;20433;-59
2022/02/28 07:07:24;;;;;;;24.00;14.67;;;3.30;1.00;;;;;;5105324;28;20182;-59
2022/02/28 07:09:50;;;;;;;27.73;14.43;;;3.40;1.00;;;;;;5102861;28;20501;-61
2022/02/28 07:12:15;;;;;;;27.30;13.93;;;3.70;1.00;;;;;;5109024;28;20668;-58
2022/02/28 07:14:43;;;;;;;24.50;13.40;;;3.80;1.00;;;;;;5107726;28;20440;-58
2022/02/28 07:17:09;;;;;;;26.47;15.53;;;4.00;1.00;;;;;;5100097;28;20191;-59
2022/02/28 07:19:34;;;;;;;26.47;15.13;;;4.00;1.00;;;;;;5100294;28;20447;-58
2022/02/28 07:22:00;;;;;;;23.10;13.17;;;4.20;1.00;;;;;;5100818;28;20968;-58
2022/02/28 07:24:26;;;;;;;25.63;13.50;;;4.30;1.00;;;;;;5107213;28;20182;-60
2022/02/28 07:26:52;;;;;;;26.50;14.97;;;4.30;1.00;;;;;;5103530;28;20440;-59
2022/02/28 07:29:17;;;;;;;21.90;13.70;;;4.40;1.00;;;;;;5098590;28;20182;-60
2022/02/28 07:31:43;;;;;;;20.67;12.67;;;4.30;1.00;;;;;;5100833;28;20201;-58
2022/02/28 07:34:09;;;;;;;24.13;12.53;;;4.40;1.00;;;;;;5100172;28;20182;-59
2022/02/28 07:36:35;;;;;;;22.40;13.60;;;4.50;1.00;;;;;;5105121;28;20544;-59
2022/02/28 07:39:01;;;;;;;23.07;12.40;;;4.80;1.00;;;;;;5094741;28;20459;-58
2022/02/28 07:41:29;;;;;;;23.27;11.80;;;5.00;1.00;;;;;;5105671;28;20472;-59
2022/02/28 07:43:54;;;;;;;21.83;13.27;;;5.20;1.00;;;;;;5096495;28;20937;-59
2022/02/28 07:46:20;;;;;;;22.43;11.80;;;5.40;1.00;;;;;;5100938;28;20433;-59
2022/02/28 07:48:45;;;;;;;16.73;12.33;;;5.50;1.00;;;;;;5101739;28;20191;-60
2022/02/28 07:51:11;;;;;;;22.10;12.77;;;5.50;1.00;;;;;;5100886;28;20191;-58
2022/02/28 07:53:36;;;;;;;18.77;11.50;;;5.60;1.00;;;;;;5105727;28;20217;-59
2022/02/28 07:56:02;;;;;;;19.93;12.60;;;;;;;;;;5099227;28;20228;-59
2022/02/28 07:58:28;;;;;;;24.63;13.30;;;;;;;;;;5097825;28;20194;-60
2022/02/28 08:00:54;;;;;;;24.40;13.00;;;6.20;1.00;;;;;;5102447;28;20472;-58
2022/02/28 08:03:19;;;;;;;18.40;10.80;;;6.40;1.00;;;;;;5096600;28;20419;-59
2022/02/28 08:05:45;;;;;;;21.03;13.03;;;6.70;1.00;;;;;;5093146;28;20186;-61
2022/02/28 08:08:10;;;;;;;16.20;11.23;;;6.90;1.00;;;;;;5101429;28;20178;-59
2022/02/28 08:10:36;;;;;;;21.70;12.17;;;7.20;1.00;;;;;;5093828;28;20205;-59
2022/02/28 08:13:02;;;;;;;21.37;12.93;;;;;;;;;;5097591;28;20647;-57
2022/02/28 08:15:28;;;;;;;21.90;13.67;;;7.80;1.00;;;;;;5099193;28;20212;-59
2022/02/28 08:17:53;;;;;;;24.13;12.97;;;7.70;1.00;;;;;;5103908;28;20426;-58
2022/02/28 08:20:19;;;;;;;23.17;13.13;;;7.70;1.00;;;;;;5097705;28;20567;-59
2022/02/28 08:22:44;;;;;;;19.20;11.70;;;7.50;1.00;;;;;;5085990;28;20239;-59
2022/02/28 08:25:10;;;;;;;18.33;11.97;;;7.10;1.00;;;;;;5099196;28;20186;-58
2022/02/28 08:27:36;;;;;;;21.90;13.23;;;6.90;1.00;;;;;;5095398;28;20616;-58
2022/02/28 08:30:05;;;;;;;22.43;14.17;;;6.90;1.00;;;;;;5093913;28;20266;-59
2022/02/28 08:32:31;;;;;;;22.20;13.07;;;6.40;1.00;;;;;;5100800;28;20174;-59
2022/02/28 08:34:56;;;;;;;24.40;12.50;;;6.10;1.00;;;;;;5106025;28;20439;-58
2022/02/28 08:37:22;;;;;;;21.53;12.33;;;6.10;1.00;;;;;;5101385;28;20628;-59
2022/02/28 08:39:48;;;;;;;22.63;12.93;;;6.00;1.00;;;;;;5103015;28;20243;-60
2022/02/28 08:42:13;;;;;;;20.03;11.70;;;6.00;1.00;;;;;;5103228;28;20623;-59
2022/02/28 08:44:40;;;;;;;21.10;12.97;;;6.00;1.00;;;;;;5093950;28;20312;-57
2022/02/28 08:47:06;;;;;;;24.70;13.40;;;;;;;;;;5100118;28;20242;-61
2022/02/28 08:49:31;;;;;;;19.53;11.70;;;6.00;1.00;;;;;;5103592;28;20522;-59
2022/02/28 08:51:57;;;;;;;20.67;12.97;;;6.00;1.00;;;;;;5092585;28;20407;-62
2022/02/28 08:54:23;;;;;;;22.07;12.40;;;6.00;1.00;;;;;;5107449;28;20221;-57
2022/02/28 08:56:49;;;;;;;24.47;13.33;;;6.10;1.00;;;;;;5095130;28;20601;-58
2022/02/28 08:59:15;;;;;;;24.33;12.30;;;6.30;1.00;;;;;;5094012;28;20906;-62
2022/02/28 09:01:40;;;;;;;28.83;15.13;;;6.50;1.00;;;;;;5094666;28;20472;-58
2022/02/28 09:04:06;;;;;;;20.47;12.53;;;6.50;1.00;;;;;;5101936;28;20186;-58
2022/02/28 09:06:32;;;;;;;16.40;11.17;;;6.60;1.00;;;;;;5103668;28;20189;-58
2022/02/28 09:08:57;;;;;;;18.63;12.07;;;6.70;1.00;;;;;;5102944;28;20189;-57
2022/02/28 09:11:23;;;;;;;17.80;12.47;;;6.70;1.00;;;;;;5102919;28;20859;-58
2022/02/28 09:13:50;;;;;;;21.90;12.13;;;6.70;1.00;;;;;;5087337;28;20431;-58
2022/02/28 09:16:16;;;;;;;19.33;12.80;;;6.60;1.00;;;;;;5096842;28;20190;-59
2022/02/28 09:18:42;;;;;;;18.03;12.67;;;;;;;;;;5097802;28;20528;-58
2022/02/28 09:21:13;;;;;;;25.20;12.30;;;6.80;1.00;;;;;;5097429;28;20213;-58
2022/02/28 09:23:39;;;;;;;20.30;12.77;;;6.80;1.00;;;;;;5100617;28;20944;-59
2022/02/28 09:26:10;;;;;;;23.27;12.87;;;6.90;1.00;;;;;;5109282;28;20529;-59
2022/02/28 09:28:36;;;;;;;22.70;13.70;;;7.20;1.00;;;;;;5108778;28;20232;-57
2022/02/28 09:31:01;;;;;;;18.90;12.33;;;7.10;1.00;;;;;;5109243;28;20432;-57
2022/02/28 09:33:27;;;;;;;21.43;12.53;;;7.20;1.00;;;;;;5097848;28;20194;-57
2022/02/28 09:35:54;;;;;;;20.20;12.43;;;7.30;1.00;;;;;;5109273;28;20309;-59
2022/02/28 09:38:19;;;;;;;18.90;12.30;;;7.60;1.00;;;;;;5103930;28;20238;-56
2022/02/28 09:40:48;;;;;;;23.53;13.00;;;7.60;1.00;;;;;;5107278;28;20825;-57
2022/02/28 09:43:15;;;;;;;21.47;13.60;;;7.70;1.00;;;;;;5105303;28;20182;-57
2022/02/28 09:45:41;;;;;;;22.93;13.50;;;7.80;1.00;;;;;;5111034;28;20830;-59
2022/02/28 09:48:08;;;;;;;21.00;12.10;;;7.90;1.00;;;;;;5101248;28;20484;-58
2022/02/28 09:50:34;;;;;;;19.00;12.13;;;7.70;1.00;;;;;;5103607;28;20702;-59
2022/02/28 09:53:00;;;;;;;19.20;12.20;;;;;;;;;;5105717;28;20424;-58
2022/02/28 09:55:26;;;;;;;21.80;13.13;;;7.80;1.00;;;;;;5102044;28;20229;-59
2022/02/28 09:57:52;;;;;;;16.93;12.10;;;7.80;1.00;;;;;;5108428;28;20497;-57
2022/02/28 10:00:23;;;;;;;18.87;12.53;;;7.60;1.00;;;;;;5101841;28;21052;-59
2022/02/28 10:02:50;;;;;;;19.83;12.20;;;7.80;1.00;;;;;;5102098;28;20493;-58
2022/02/28 10:05:17;;;;;;;22.07;12.67;;;7.90;1.00;;;;;;5098353;28;20444;-57
2022/02/28 10:07:49;;;;;;;22.20;13.00;;;7.90;1.00;;;;;;5111585;28;20937;-58
2022/02/28 10:10:16;;;;;;;20.23;12.47;;;7.90;1.00;;;;;;5079781;28;20908;-58
2022/02/28 10:12:41;;;;;;;23.77;11.80;;;8.00;1.00;;;;;;5096162;28;20579;-57
2022/02/28 10:15:16;;;;;;;18.27;13.20;;;7.90;1.00;;;;;;5104011;28;20651;-59
2022/02/28 10:17:48;;;;;;;20.60;13.80;;;7.90;1.00;;;;;;5098775;28;20174;-59
2022/02/28 10:20:36;;;;;;;17.33;11.30;;;7.90;1.00;;;;;;5100284;28;20520;-59
2022/02/28 10:23:10;;;;;;;19.00;11.63;;;8.00;1.00;;;;;;5107307;28;20859;-57
2022/02/28 10:25:37;;;;;;;18.10;11.47;;;8.30;1.00;;;;;;5106573;28;20437;-57
2022/02/28 10:28:20;;;;;;;17.60;12.63;;;8.50;1.00;;;;;;5101173;28;20524;-58
2022/02/28 10:30:54;;;;;;;20.60;11.83;;;8.70;1.00;;;;;;5106736;28;20463;-56
2022/02/28 10:33:20;;;;;;;19.70;13.17;;;8.70;1.00;;;;;;5111004;28;20941;-58
2022/02/28 10:36:00;;;;;;;18.10;11.60;;;8.50;1.00;;;;;;5102855;28;20451;-58
2022/02/28 10:38:31;;;;;;;19.80;13.17;;;8.50;1.00;;;;;;5105101;28;20798;-59
2022/02/28 10:40:57;;;;;;;19.23;11.70;;;8.40;1.00;;;;;;5105441;28;20462;-57
2022/02/28 10:43:27;;;;;;;16.57;11.63;;;8.20;1.00;;;;;;5107388;28;20445;-58
2022/02/28 10:45:54;;;;;;;16.50;11.27;;;8.00;1.00;;;;;;5092556;28;20798;-58
2022/02/28 10:48:21;;;;;;;17.57;10.97;;;7.80;1.00;;;;;;5098149;28;20526;-58
2022/02/28 10:50:48;;;;;;;20.43;12.00;;;7.80;1.00;;;;;;5092237;28;20438;-58
2022/02/28 10:53:19;;;;;;;16.53;10.83;;;7.90;1.00;;;;;;5111012;28;20422;-57
2022/02/28 10:55:46;;;;;;;17.27;10.87;;;7.80;1.00;;;;;;5097460;28;20472;-59
2022/02/28 10:58:17;;;;;;;15.77;9.87;;;7.70;1.00;;;;;;5091338;28;20441;-58
2022/02/28 11:00:58;;;;;;;15.10;10.50;;;7.70;1.00;;;;;;5099799;28;20461;-56
2022/02/28 11:03:41;;;;;;;16.43;10.57;;;7.60;1.00;;;;;;5105460;28;20431;-58
2022/02/28 11:06:20;;;;;;;17.80;10.07;;;7.70;1.00;;;;;;5105940;28;20431;-58
2022/02/28 11:08:46;;;;;;;21.20;11.33;;;7.90;1.00;;;;;;5098004;28;20844;-58
2022/02/28 11:11:14;;;;;;;17.07;10.93;;;8.00;1.00;;;;;;5099178;28;20476;-57
2022/02/28 11:13:45;;;;;;;17.97;10.90;;;8.20;1.00;;;;;;5099867;28;20426;-57
2022/02/28 11:16:13;;;;;;;18.07;10.80;;;8.00;1.00;;;;;;5101310;28;20947;-60
2022/02/28 11:18:41;;;;;;;16.30;10.00;;;8.00;1.00;;;;;;5107799;28;20447;-57
2022/02/28 11:21:30;;;;;;;16.60;10.93;;;7.50;1.00;;;;;;5108712;28;20470;-57
2022/02/28 11:23:55;;;;;;;19.80;10.67;;;7.70;1.00;;;;;;5093065;28;20433;-58
2022/02/28 11:26:22;;;;;;;16.07;9.63;;;7.80;1.00;;;;;;5092903;28;20440;-60
2022/02/28 11:28:48;;;;;;;14.43;10.13;;;7.80;1.00;;;;;;5097190;28;20206;-58
2022/02/28 11:31:16;;;;;;;16.70;9.50;;;8.10;1.00;;;;;;5104167;28;20455;-58
2022/02/28 11:34:05;;;;;;;12.33;9.23;;;8.30;1.00;;;;;;5111399;28;20273;-57
2022/02/28 11:36:46;;;;;;;14.07;8.73;;;8.40;1.00;;;;;;5101349;28;20455;-58
2022/02/28 11:39:12;;;;;;;14.60;8.60;;;8.90;1.00;;;;;;5096458;28;20493;-58
2022/02/28 11:41:38;;;;;;;12.83;8.23;;;9.00;1.00;;;;;;5106835;28;20439;-59
2022/02/28 11:44:07;;;;;;;13.37;8.20;;;9.20;1.00;;;;;;5097273;28;20190;-59
2022/02/28 11:46:37;;;;;;;11.53;7.53;;;9.30;1.00;;;;;;5091154;28;20700;-57
2022/02/28 11:49:06;;;;;;;13.00;7.70;;;9.30;1.00;;;;;;5099530;28;20432;-58
2022/02/28 11:51:42;;;;;;;11.40;7.17;;;9.50;1.00;;;;;;5104433;28;20438;-59
2022/02/28 11:54:26;;;;;;;10.90;8.10;;;9.20;1.00;;;;;;5104777;28;20509;-58
2022/02/28 11:56:54;;;;;;;12.00;7.53;;;9.20;1.00;;;;;;5092839;28;20520;-58
2022/02/28 11:59:28;;;;;;;11.60;7.20;;;9.20;1.00;;;;;;5107948;28;20434;-57
2022/02/28 12:02:04;;;;;;;10.70;6.20;;;8.90;1.00;;;;;;5086784;28;20457;-57
2022/02/28 12:04:41;;;;;;;9.90;6.20;;;8.80;1.00;;;;;;5103490;28;20428;-57
2022/02/28 12:07:07;;;;;;;11.23;6.67;;;8.80;1.00;;;;;;5095003;28;20455;-58
2022/02/28 12:09:32;;;;;;;9.90;5.90;;;9.00;1.00;;;;;;5101342;28;20937;-58
2022/02/28 12:12:25;;;;;;;8.50;6.07;;;9.10;1.00;;;;;;5105989;28;20212;-57
2022/02/28 12:17:31;;;;;;;8.50;6.00;;;9.00;1.00;;;;;;5093305;28;20421;-58
2022/02/28 12:20:15;;;;;;;9.77;6.77;;;8.80;1.00;;;;;;5102085;28;20436;-58
2022/02/28 12:25:32;;;;;;;9.77;6.57;;;9.00;1.00;;;;;;5108392;28;20467;-58
2022/02/28 12:28:17;;;;;;;10.13;6.53;;;9.10;1.00;;;;;;5089604;28;20478;-58
2022/02/28 12:30:58;;;;;;;7.90;5.90;;;8.80;1.00;;;;;;5090857;28;20437;-58
2022/02/28 12:33:39;;;;;;;11.40;6.40;;;8.60;1.00;;;;;;5106615;28;20509;-58
2022/02/28 12:36:21;;;;;;;8.20;5.57;;;8.40;1.00;;;;;;5090892;28;20440;-58
2022/02/28 12:38:58;;;;;;;9.90;6.13;;;9.10;1.00;;;;;;5101276;28;20523;-59
2022/02/28 12:41:27;;;;;;;11.17;6.23;;;8.50;1.00;;;;;;5100389;28;20439;-59
2022/02/28 12:43:53;;;;;;;8.67;5.70;;;8.50;1.00;;;;;;5102665;28;21051;-58
2022/02/28 12:46:26;;;;;;;11.57;6.07;;;8.60;1.00;;;;;;5102810;28;20410;-58
2022/02/28 12:48:52;;;;;;;10.20;6.60;;;8.90;1.00;;;;;;5093672;28;20406;-58
2022/02/28 12:51:21;;;;;;;8.97;5.97;;;8.90;1.00;;;;;;5105715;28;20792;-59
2022/02/28 12:53:47;;;;;;;8.00;5.73;;;8.50;1.00;;;;;;5101855;28;20442;-57
2022/02/28 12:56:23;;;;;;;9.10;5.83;;;8.30;1.00;;;;;;5102384;28;20530;-59
2022/02/28 12:58:51;;;;;;;9.03;5.87;;;8.30;1.00;;;;;;5093683;28;20194;-57
2022/02/28 13:01:18;;;;;;;10.80;6.20;;;8.30;1.00;;;;;;5090721;28;20468;-57
2022/02/28 13:03:46;;;;;;;8.97;6.07;;;8.50;1.00;;;;;;5101573;28;20523;-58
2022/02/28 13:06:26;;;;;;;7.30;5.07;;;8.70;1.00;;;;;;5104902;28;20443;-58
2022/02/28 13:09:16;;;;;;;8.77;5.73;;;8.90;1.00;;;;;;5104228;28;20790;-56
2022/02/28 13:11:51;;;;;;;7.77;5.93;;;9.00;1.00;;;;;;5084455;28;20431;-58